X  Sluiten METAR luchtvaart weer gegevens      EHAM Amsterdam Airport Schiphol
Temperatuur
17°C Temperatuur
12°C Dauwpunt
73% Vochtigheid



Wind
5 M/S
12 MPH
19 KM/U
10 KTS



240°
WZW
Huidig weer

Wat bewolking Wat bewolking
Luchtdruk 1014.9 (hPa) - 29.97 (inHg)
Zicht 6 (mijl) - 9.7 (km)
Vliegveld
Vliegveld code EHAM

Locatie : Amsterdam Airport Schiphol
Afstand: 2 (km)

Metar:
EHAM 231725Z 24010KT 200V270 9999 FEW025 17/12 Q1015 NOSIG

Tijd: 23-05-2024 19:25 CEST